sensor_id;sensor_type;location;lat;lon;timestamp;temperature;humidity
22682;DHT22;11508;50.856;4.380;2022-07-19T00:01:35;27.80;92.10
22682;DHT22;11508;50.856;4.380;2022-07-19T00:04:01;27.70;91.90
22682;DHT22;11508;50.856;4.380;2022-07-19T00:06:27;27.70;92.10
22682;DHT22;11508;50.856;4.380;2022-07-19T00:08:53;27.70;97.80
22682;DHT22;11508;50.856;4.380;2022-07-19T00:11:19;27.60;99.90
22682;DHT22;11508;50.856;4.380;2022-07-19T00:13:44;27.60;99.90
22682;DHT22;11508;50.856;4.380;2022-07-19T00:16:10;27.50;99.90
22682;DHT22;11508;50.856;4.380;2022-07-19T00:18:36;27.50;99.90
22682;DHT22;11508;50.856;4.380;2022-07-19T00:21:02;27.50;99.90
22682;DHT22;11508;50.856;4.380;2022-07-19T00:23:28;27.50;99.90
22682;DHT22;11508;50.856;4.380;2022-07-19T00:25:53;27.40;99.90
22682;DHT22;11508;50.856;4.380;2022-07-19T00:28:22;27.40;99.90
22682;DHT22;11508;50.856;4.380;2022-07-19T00:30:47;27.40;99.90
22682;DHT22;11508;50.856;4.380;2022-07-19T00:33:13;27.40;99.90
22682;DHT22;11508;50.856;4.380;2022-07-19T00:35:40;27.40;99.90
22682;DHT22;11508;50.856;4.380;2022-07-19T00:38:07;27.40;99.90
22682;DHT22;11508;50.856;4.380;2022-07-19T00:40:34;27.40;99.90
22682;DHT22;11508;50.856;4.380;2022-07-19T00:43:00;27.30;99.90
22682;DHT22;11508;50.856;4.380;2022-07-19T00:45:26;27.30;99.90
22682;DHT22;11508;50.856;4.380;2022-07-19T00:47:51;27.30;99.90
22682;DHT22;11508;50.856;4.380;2022-07-19T00:50:18;27.30;99.90
22682;DHT22;11508;50.856;4.380;2022-07-19T00:52:46;27.40;99.90
22682;DHT22;11508;50.856;4.380;2022-07-19T00:55:14;27.40;99.90
22682;DHT22;11508;50.856;4.380;2022-07-19T00:57:40;27.50;99.90
22682;DHT22;11508;50.856;4.380;2022-07-19T01:00:08;27.40;99.90
22682;DHT22;11508;50.856;4.380;2022-07-19T01:02:35;27.40;99.90
22682;DHT22;11508;50.856;4.380;2022-07-19T01:05:01;27.30;99.90
22682;DHT22;11508;50.856;4.380;2022-07-19T01:07:27;27.30;99.90
22682;DHT22;11508;50.856;4.380;2022-07-19T01:09:53;27.40;99.90
22682;DHT22;11508;50.856;4.380;2022-07-19T01:12:19;27.30;99.90
22682;DHT22;11508;50.856;4.380;2022-07-19T01:14:46;27.40;99.90
22682;DHT22;11508;50.856;4.380;2022-07-19T01:17:11;27.30;99.90
22682;DHT22;11508;50.856;4.380;2022-07-19T01:19:37;27.30;99.90
22682;DHT22;11508;50.856;4.380;2022-07-19T01:22:03;27.30;99.90
22682;DHT22;11508;50.856;4.380;2022-07-19T01:24:29;27.10;99.90
22682;DHT22;11508;50.856;4.380;2022-07-19T01:26:54;27.00;99.90
22682;DHT22;11508;50.856;4.380;2022-07-19T01:29:20;26.90;99.90
22682;DHT22;11508;50.856;4.380;2022-07-19T01:31:46;26.90;99.90
22682;DHT22;11508;50.856;4.380;2022-07-19T01:34:12;27.00;99.90
22682;DHT22;11508;50.856;4.380;2022-07-19T01:36:38;27.00;99.90
22682;DHT22;11508;50.856;4.380;2022-07-19T01:39:03;27.10;99.90
22682;DHT22;11508;50.856;4.380;2022-07-19T01:41:29;27.10;99.90
22682;DHT22;11508;50.856;4.380;2022-07-19T01:43:55;27.10;99.90
22682;DHT22;11508;50.856;4.380;2022-07-19T01:46:20;27.10;99.90
22682;DHT22;11508;50.856;4.380;2022-07-19T01:48:46;27.20;99.90
22682;DHT22;11508;50.856;4.380;2022-07-19T01:51:12;27.20;99.90
22682;DHT22;11508;50.856;4.380;2022-07-19T01:53:38;27.20;99.90
22682;DHT22;11508;50.856;4.380;2022-07-19T01:56:05;27.10;99.90
22682;DHT22;11508;50.856;4.380;2022-07-19T01:58:31;27.20;99.90
22682;DHT22;11508;50.856;4.380;2022-07-19T02:00:57;27.20;99.90
22682;DHT22;11508;50.856;4.380;2022-07-19T02:03:22;27.30;99.90
22682;DHT22;11508;50.856;4.380;2022-07-19T02:05:48;27.30;99.90
22682;DHT22;11508;50.856;4.380;2022-07-19T02:08:13;27.20;99.90
22682;DHT22;11508;50.856;4.380;2022-07-19T02:10:39;27.00;99.90
22682;DHT22;11508;50.856;4.380;2022-07-19T02:13:05;26.90;99.90
22682;DHT22;11508;50.856;4.380;2022-07-19T02:15:31;27.00;99.90
22682;DHT22;11508;50.856;4.380;2022-07-19T02:17:57;27.00;99.90
22682;DHT22;11508;50.856;4.380;2022-07-19T02:20:23;27.00;99.90
22682;DHT22;11508;50.856;4.380;2022-07-19T02:22:49;27.10;99.90
22682;DHT22;11508;50.856;4.380;2022-07-19T02:25:14;27.10;99.90
22682;DHT22;11508;50.856;4.380;2022-07-19T02:27:41;27.10;99.90
22682;DHT22;11508;50.856;4.380;2022-07-19T02:30:07;27.10;99.90
22682;DHT22;11508;50.856;4.380;2022-07-19T02:32:33;27.10;99.90
22682;DHT22;11508;50.856;4.380;2022-07-19T02:34:59;27.10;99.90
22682;DHT22;11508;50.856;4.380;2022-07-19T02:37:25;26.90;99.90
22682;DHT22;11508;50.856;4.380;2022-07-19T02:39:51;26.80;99.90
22682;DHT22;11508;50.856;4.380;2022-07-19T02:42:16;26.80;99.90
22682;DHT22;11508;50.856;4.380;2022-07-19T02:44:42;26.80;99.90
22682;DHT22;11508;50.856;4.380;2022-07-19T02:47:08;26.80;99.90
22682;DHT22;11508;50.856;4.380;2022-07-19T02:49:34;26.50;99.90
22682;DHT22;11508;50.856;4.380;2022-07-19T02:51:59;26.30;99.90
22682;DHT22;11508;50.856;4.380;2022-07-19T02:54:25;26.50;1.00
22682;DHT22;11508;50.856;4.380;2022-07-19T02:56:51;26.40;99.90
22682;DHT22;11508;50.856;4.380;2022-07-19T02:59:16;26.50;99.90
22682;DHT22;11508;50.856;4.380;2022-07-19T03:01:42;26.40;1.00
22682;DHT22;11508;50.856;4.380;2022-07-19T03:04:08;26.30;99.90
22682;DHT22;11508;50.856;4.380;2022-07-19T03:06:33;26.20;99.90
22682;DHT22;11508;50.856;4.380;2022-07-19T03:08:59;26.10;99.90
22682;DHT22;11508;50.856;4.380;2022-07-19T03:11:25;26.10;99.90
22682;DHT22;11508;50.856;4.380;2022-07-19T03:13:51;26.10;99.90
22682;DHT22;11508;50.856;4.380;2022-07-19T03:16:16;26.10;99.90
22682;DHT22;11508;50.856;4.380;2022-07-19T03:18:42;26.00;99.90
22682;DHT22;11508;50.856;4.380;2022-07-19T03:21:08;26.10;99.90
22682;DHT22;11508;50.856;4.380;2022-07-19T03:23:35;26.20;1.00
22682;DHT22;11508;50.856;4.380;2022-07-19T03:26:01;26.30;1.00
22682;DHT22;11508;50.856;4.380;2022-07-19T03:28:27;26.30;1.00
22682;DHT22;11508;50.856;4.380;2022-07-19T03:30:53;26.40;1.00
22682;DHT22;11508;50.856;4.380;2022-07-19T03:33:18;26.40;1.00
22682;DHT22;11508;50.856;4.380;2022-07-19T03:35:45;26.40;1.00
22682;DHT22;11508;50.856;4.380;2022-07-19T03:38:12;26.50;1.00
22682;DHT22;11508;50.856;4.380;2022-07-19T03:40:38;26.50;1.00
22682;DHT22;11508;50.856;4.380;2022-07-19T03:43:05;26.40;1.00
22682;DHT22;11508;50.856;4.380;2022-07-19T03:45:31;26.40;1.00
22682;DHT22;11508;50.856;4.380;2022-07-19T03:47:57;26.30;1.00
22682;DHT22;11508;50.856;4.380;2022-07-19T03:50:22;26.20;1.00
22682;DHT22;11508;50.856;4.380;2022-07-19T03:52:48;26.10;1.00
22682;DHT22;11508;50.856;4.380;2022-07-19T03:55:14;25.90;1.00
22682;DHT22;11508;50.856;4.380;2022-07-19T03:57:39;25.70;1.00
22682;DHT22;11508;50.856;4.380;2022-07-19T04:00:06;25.70;1.00
22682;DHT22;11508;50.856;4.380;2022-07-19T04:02:32;25.60;99.90
22682;DHT22;11508;50.856;4.380;2022-07-19T04:04:57;25.50;99.90
22682;DHT22;11508;50.856;4.380;2022-07-19T04:07:23;25.40;99.90
22682;DHT22;11508;50.856;4.380;2022-07-19T04:09:49;25.40;99.90
22682;DHT22;11508;50.856;4.380;2022-07-19T04:12:15;25.40;99.90
22682;DHT22;11508;50.856;4.380;2022-07-19T04:14:40;25.30;99.90
22682;DHT22;11508;50.856;4.380;2022-07-19T04:17:06;25.30;99.90
22682;DHT22;11508;50.856;4.380;2022-07-19T04:19:32;25.30;99.90
22682;DHT22;11508;50.856;4.380;2022-07-19T04:21:58;25.30;99.90
22682;DHT22;11508;50.856;4.380;2022-07-19T04:24:24;25.30;99.90
22682;DHT22;11508;50.856;4.380;2022-07-19T04:26:50;25.30;99.90
22682;DHT22;11508;50.856;4.380;2022-07-19T04:29:15;25.40;99.90
22682;DHT22;11508;50.856;4.380;2022-07-19T04:31:41;25.30;99.90
22682;DHT22;11508;50.856;4.380;2022-07-19T04:34:07;25.30;99.90
22682;DHT22;11508;50.856;4.380;2022-07-19T04:36:32;25.30;1.00
22682;DHT22;11508;50.856;4.380;2022-07-19T04:38:58;25.30;1.00
22682;DHT22;11508;50.856;4.380;2022-07-19T04:41:24;25.20;1.00
22682;DHT22;11508;50.856;4.380;2022-07-19T04:43:49;25.20;31.30
22682;DHT22;11508;50.856;4.380;2022-07-19T04:46:15;25.20;99.90
22682;DHT22;11508;50.856;4.380;2022-07-19T04:48:41;25.20;99.90
22682;DHT22;11508;50.856;4.380;2022-07-19T04:51:07;25.20;99.90
22682;DHT22;11508;50.856;4.380;2022-07-19T04:53:33;25.20;99.90
22682;DHT22;11508;50.856;4.380;2022-07-19T04:55:59;25.20;99.90
22682;DHT22;11508;50.856;4.380;2022-07-19T04:58:25;25.20;99.90
22682;DHT22;11508;50.856;4.380;2022-07-19T05:00:53;25.20;99.90
22682;DHT22;11508;50.856;4.380;2022-07-19T05:03:21;25.30;99.90
22682;DHT22;11508;50.856;4.380;2022-07-19T05:05:47;25.40;99.90
22682;DHT22;11508;50.856;4.380;2022-07-19T05:08:12;25.40;99.90
22682;DHT22;11508;50.856;4.380;2022-07-19T05:10:38;25.50;99.90
22682;DHT22;11508;50.856;4.380;2022-07-19T05:13:04;25.60;99.90
22682;DHT22;11508;50.856;4.380;2022-07-19T05:15:30;25.70;99.90
22682;DHT22;11508;50.856;4.380;2022-07-19T05:17:55;25.60;99.90
22682;DHT22;11508;50.856;4.380;2022-07-19T05:20:21;25.70;99.90
22682;DHT22;11508;50.856;4.380;2022-07-19T05:22:47;25.70;99.90
22682;DHT22;11508;50.856;4.380;2022-07-19T05:25:13;25.80;99.90
22682;DHT22;11508;50.856;4.380;2022-07-19T05:27:38;25.90;61.40
22682;DHT22;11508;50.856;4.380;2022-07-19T05:30:05;25.90;9.70
22682;DHT22;11508;50.856;4.380;2022-07-19T05:32:32;26.00;1.00
22682;DHT22;11508;50.856;4.380;2022-07-19T05:34:58;26.10;1.00
22682;DHT22;11508;50.856;4.380;2022-07-19T05:37:23;26.20;1.00
22682;DHT22;11508;50.856;4.380;2022-07-19T05:39:49;26.40;1.00
22682;DHT22;11508;50.856;4.380;2022-07-19T05:42:15;26.50;99.90
22682;DHT22;11508;50.856;4.380;2022-07-19T05:44:40;26.60;99.90
22682;DHT22;11508;50.856;4.380;2022-07-19T05:47:06;26.70;99.90
22682;DHT22;11508;50.856;4.380;2022-07-19T05:49:32;26.80;99.90
22682;DHT22;11508;50.856;4.380;2022-07-19T05:51:58;27.20;99.90
22682;DHT22;11508;50.856;4.380;2022-07-19T05:54:23;27.90;99.90
22682;DHT22;11508;50.856;4.380;2022-07-19T05:56:50;28.70;99.90
22682;DHT22;11508;50.856;4.380;2022-07-19T05:59:16;29.20;43.20
22682;DHT22;11508;50.856;4.380;2022-07-19T06:01:42;29.40;1.00
22682;DHT22;11508;50.856;4.380;2022-07-19T06:04:07;30.00;1.00
22682;DHT22;11508;50.856;4.380;2022-07-19T06:06:34;29.90;1.00
22682;DHT22;11508;50.856;4.380;2022-07-19T06:09:01;29.60;1.00
22682;DHT22;11508;50.856;4.380;2022-07-19T06:11:28;29.50;1.00
22682;DHT22;11508;50.856;4.380;2022-07-19T06:13:54;29.50;1.00
22682;DHT22;11508;50.856;4.380;2022-07-19T06:16:20;29.50;1.00
22682;DHT22;11508;50.856;4.380;2022-07-19T06:18:46;29.50;1.00
22682;DHT22;11508;50.856;4.380;2022-07-19T06:21:15;29.60;1.00
22682;DHT22;11508;50.856;4.380;2022-07-19T06:23:44;29.60;1.00
22682;DHT22;11508;50.856;4.380;2022-07-19T06:26:11;30.00;1.00
22682;DHT22;11508;50.856;4.380;2022-07-19T06:28:38;29.90;99.90
22682;DHT22;11508;50.856;4.380;2022-07-19T06:31:06;29.90;99.90
22682;DHT22;11508;50.856;4.380;2022-07-19T06:33:32;30.00;99.90
22682;DHT22;11508;50.856;4.380;2022-07-19T06:35:58;30.20;99.90
22682;DHT22;11508;50.856;4.380;2022-07-19T06:38:24;30.20;99.90
22682;DHT22;11508;50.856;4.380;2022-07-19T06:40:50;30.50;99.90
22682;DHT22;11508;50.856;4.380;2022-07-19T06:43:15;30.40;99.90
22682;DHT22;11508;50.856;4.380;2022-07-19T06:45:41;30.40;99.90
22682;DHT22;11508;50.856;4.380;2022-07-19T06:48:07;30.50;99.90
22682;DHT22;11508;50.856;4.380;2022-07-19T06:50:33;30.40;99.90
22682;DHT22;11508;50.856;4.380;2022-07-19T06:52:59;30.90;99.90
22682;DHT22;11508;50.856;4.380;2022-07-19T06:55:24;31.70;99.90
22682;DHT22;11508;50.856;4.380;2022-07-19T06:57:50;31.80;99.90
22682;DHT22;11508;50.856;4.380;2022-07-19T07:00:16;31.50;99.90
22682;DHT22;11508;50.856;4.380;2022-07-19T07:02:42;31.40;99.90
22682;DHT22;11508;50.856;4.380;2022-07-19T07:05:09;32.10;99.90
22682;DHT22;11508;50.856;4.380;2022-07-19T07:07:36;31.90;99.90
22682;DHT22;11508;50.856;4.380;2022-07-19T07:10:03;32.40;99.90
22682;DHT22;11508;50.856;4.380;2022-07-19T07:12:29;32.60;99.90
22682;DHT22;11508;50.856;4.380;2022-07-19T07:14:55;32.40;99.90
22682;DHT22;11508;50.856;4.380;2022-07-19T07:17:21;32.50;99.90
22682;DHT22;11508;50.856;4.380;2022-07-19T07:19:47;33.50;99.90
22682;DHT22;11508;50.856;4.380;2022-07-19T07:22:13;33.00;99.90
22682;DHT22;11508;50.856;4.380;2022-07-19T07:24:39;33.00;99.90
22682;DHT22;11508;50.856;4.380;2022-07-19T07:27:05;33.30;99.90
22682;DHT22;11508;50.856;4.380;2022-07-19T07:29:31;33.20;99.90
22682;DHT22;11508;50.856;4.380;2022-07-19T07:31:57;33.40;99.90
22682;DHT22;11508;50.856;4.380;2022-07-19T07:34:22;33.20;99.90
22682;DHT22;11508;50.856;4.380;2022-07-19T07:36:48;33.40;99.90
22682;DHT22;11508;50.856;4.380;2022-07-19T07:39:14;33.20;99.90
22682;DHT22;11508;50.856;4.380;2022-07-19T07:41:40;33.40;99.90
22682;DHT22;11508;50.856;4.380;2022-07-19T07:44:06;33.40;99.90
22682;DHT22;11508;50.856;4.380;2022-07-19T07:46:32;33.40;99.90
22682;DHT22;11508;50.856;4.380;2022-07-19T07:48:57;33.80;99.90
22682;DHT22;11508;50.856;4.380;2022-07-19T07:51:24;34.50;99.90
22682;DHT22;11508;50.856;4.380;2022-07-19T07:53:50;34.20;99.90
22682;DHT22;11508;50.856;4.380;2022-07-19T07:56:16;33.60;99.90
22682;DHT22;11508;50.856;4.380;2022-07-19T07:58:42;33.70;99.90
22682;DHT22;11508;50.856;4.380;2022-07-19T08:01:07;34.50;99.90
22682;DHT22;11508;50.856;4.380;2022-07-19T08:03:33;35.00;99.90
22682;DHT22;11508;50.856;4.380;2022-07-19T08:05:59;34.70;99.90
22682;DHT22;11508;50.856;4.380;2022-07-19T08:08:25;34.60;99.90
22682;DHT22;11508;50.856;4.380;2022-07-19T08:10:56;34.20;99.90
22682;DHT22;11508;50.856;4.380;2022-07-19T08:13:22;35.00;99.90
22682;DHT22;11508;50.856;4.380;2022-07-19T08:15:48;35.80;99.90
22682;DHT22;11508;50.856;4.380;2022-07-19T08:18:14;35.30;99.90
22682;DHT22;11508;50.856;4.380;2022-07-19T08:20:40;35.40;99.90
22682;DHT22;11508;50.856;4.380;2022-07-19T08:23:06;35.10;99.90
22682;DHT22;11508;50.856;4.380;2022-07-19T08:25:31;35.50;99.90
22682;DHT22;11508;50.856;4.380;2022-07-19T08:28:00;35.70;99.90
22682;DHT22;11508;50.856;4.380;2022-07-19T08:30:26;36.20;96.30
22682;DHT22;11508;50.856;4.380;2022-07-19T08:32:52;36.60;86.80
22682;DHT22;11508;50.856;4.380;2022-07-19T08:35:18;36.40;56.20
22682;DHT22;11508;50.856;4.380;2022-07-19T08:37:43;36.00;39.30
22682;DHT22;11508;50.856;4.380;2022-07-19T08:40:09;35.30;35.90
22682;DHT22;11508;50.856;4.380;2022-07-19T08:42:35;35.10;37.60
22682;DHT22;11508;50.856;4.380;2022-07-19T08:45:04;35.40;40.00
22682;DHT22;11508;50.856;4.380;2022-07-19T08:47:31;36.10;59.80
22682;DHT22;11508;50.856;4.380;2022-07-19T08:49:59;37.30;63.00
22682;DHT22;11508;50.856;4.380;2022-07-19T08:52:26;38.50;51.70
22682;DHT22;11508;50.856;4.380;2022-07-19T08:54:51;39.40;22.30
22682;DHT22;11508;50.856;4.380;2022-07-19T08:57:17;38.80;1.00
22682;DHT22;11508;50.856;4.380;2022-07-19T09:00:04;37.50;1.00
22682;DHT22;11508;50.856;4.380;2022-07-19T09:02:30;37.20;1.00
22682;DHT22;11508;50.856;4.380;2022-07-19T09:05:03;38.20;1.00
22682;DHT22;11508;50.856;4.380;2022-07-19T09:07:31;38.10;1.00
22682;DHT22;11508;50.856;4.380;2022-07-19T09:10:16;38.60;1.00
22682;DHT22;11508;50.856;4.380;2022-07-19T09:13:09;38.50;1.00
22682;DHT22;11508;50.856;4.380;2022-07-19T09:15:50;38.00;1.00
22682;DHT22;11508;50.856;4.380;2022-07-19T09:20:59;36.70;1.00
22682;DHT22;11508;50.856;4.380;2022-07-19T09:23:25;37.20;1.00
22682;DHT22;11508;50.856;4.380;2022-07-19T09:25:52;36.80;1.00
22682;DHT22;11508;50.856;4.380;2022-07-19T09:28:20;36.60;1.00
22682;DHT22;11508;50.856;4.380;2022-07-19T09:30:48;37.50;1.00
22682;DHT22;11508;50.856;4.380;2022-07-19T09:33:47;38.10;1.00
22682;DHT22;11508;50.856;4.380;2022-07-19T09:36:12;38.50;1.00
22682;DHT22;11508;50.856;4.380;2022-07-19T09:38:38;38.80;1.00
22682;DHT22;11508;50.856;4.380;2022-07-19T09:41:10;38.20;1.00
22682;DHT22;11508;50.856;4.380;2022-07-19T09:43:56;38.20;1.00
22682;DHT22;11508;50.856;4.380;2022-07-19T09:46:38;38.20;1.00
22682;DHT22;11508;50.856;4.380;2022-07-19T09:49:09;38.80;1.00
22682;DHT22;11508;50.856;4.380;2022-07-19T09:51:40;38.60;1.00
22682;DHT22;11508;50.856;4.380;2022-07-19T09:54:08;39.10;1.00
22682;DHT22;11508;50.856;4.380;2022-07-19T09:56:36;39.40;1.00
22682;DHT22;11508;50.856;4.380;2022-07-19T09:59:02;39.70;1.00
22682;DHT22;11508;50.856;4.380;2022-07-19T10:01:28;38.80;1.00
22682;DHT22;11508;50.856;4.380;2022-07-19T10:04:01;38.50;1.00
22682;DHT22;11508;50.856;4.380;2022-07-19T10:06:27;38.00;1.00
22682;DHT22;11508;50.856;4.380;2022-07-19T10:08:53;38.50;1.00
22682;DHT22;11508;50.856;4.380;2022-07-19T10:11:21;38.80;1.00
22682;DHT22;11508;50.856;4.380;2022-07-19T10:13:48;39.30;1.00
22682;DHT22;11508;50.856;4.380;2022-07-19T10:16:20;39.60;1.00
22682;DHT22;11508;50.856;4.380;2022-07-19T10:19:03;39.70;1.00
22682;DHT22;11508;50.856;4.380;2022-07-19T10:21:30;40.10;1.00
22682;DHT22;11508;50.856;4.380;2022-07-19T10:23:58;40.20;1.00
22682;DHT22;11508;50.856;4.380;2022-07-19T10:26:45;39.90;1.00
22682;DHT22;11508;50.856;4.380;2022-07-19T10:29:15;40.10;1.00
22682;DHT22;11508;50.856;4.380;2022-07-19T10:31:41;39.40;1.00
22682;DHT22;11508;50.856;4.380;2022-07-19T10:34:21;39.60;1.00
22682;DHT22;11508;50.856;4.380;2022-07-19T10:36:48;39.90;1.00
22682;DHT22;11508;50.856;4.380;2022-07-19T10:42:22;39.50;1.00
22682;DHT22;11508;50.856;4.380;2022-07-19T10:47:21;40.00;1.00
22682;DHT22;11508;50.856;4.380;2022-07-19T10:49:47;39.30;1.00
22682;DHT22;11508;50.856;4.380;2022-07-19T10:58:12;39.80;1.00
22682;DHT22;11508;50.856;4.380;2022-07-19T11:00:43;40.20;99.90
22682;DHT22;11508;50.856;4.380;2022-07-19T11:08:37;40.10;1.00
22682;DHT22;11508;50.856;4.380;2022-07-19T11:11:06;40.10;1.00
22682;DHT22;11508;50.856;4.380;2022-07-19T11:13:33;40.30;1.00
22682;DHT22;11508;50.856;4.380;2022-07-19T11:15:59;40.30;1.00
22682;DHT22;11508;50.856;4.380;2022-07-19T11:18:26;40.20;1.00
22682;DHT22;11508;50.856;4.380;2022-07-19T11:20:55;40.10;1.00
22682;DHT22;11508;50.856;4.380;2022-07-19T11:23:21;40.10;1.00
22682;DHT22;11508;50.856;4.380;2022-07-19T11:25:47;40.30;1.00
22682;DHT22;11508;50.856;4.380;2022-07-19T11:28:23;40.10;1.00
22682;DHT22;11508;50.856;4.380;2022-07-19T11:30:50;40.70;1.00
22682;DHT22;11508;50.856;4.380;2022-07-19T11:33:18;40.90;1.00
22682;DHT22;11508;50.856;4.380;2022-07-19T11:38:19;40.90;1.00
22682;DHT22;11508;50.856;4.380;2022-07-19T11:40:45;40.50;99.90
22682;DHT22;11508;50.856;4.380;2022-07-19T11:43:11;40.20;99.90
22682;DHT22;11508;50.856;4.380;2022-07-19T11:45:48;39.00;99.90
22682;DHT22;11508;50.856;4.380;2022-07-19T11:48:32;39.10;99.90
22682;DHT22;11508;50.856;4.380;2022-07-19T11:51:08;39.50;99.90
22682;DHT22;11508;50.856;4.380;2022-07-19T11:53:36;39.60;99.90
22682;DHT22;11508;50.856;4.380;2022-07-19T11:56:05;40.20;99.90
22682;DHT22;11508;50.856;4.380;2022-07-19T11:58:32;40.10;1.00
22682;DHT22;11508;50.856;4.380;2022-07-19T12:01:04;40.00;99.90
22682;DHT22;11508;50.856;4.380;2022-07-19T12:03:30;39.90;99.90
22682;DHT22;11508;50.856;4.380;2022-07-19T12:06:04;39.60;99.90
22682;DHT22;11508;50.856;4.380;2022-07-19T12:08:32;40.00;99.90
22682;DHT22;11508;50.856;4.380;2022-07-19T12:10:58;39.90;99.90
22682;DHT22;11508;50.856;4.380;2022-07-19T12:13:31;40.10;99.90
22682;DHT22;11508;50.856;4.380;2022-07-19T12:16:09;39.80;99.90
22682;DHT22;11508;50.856;4.380;2022-07-19T12:18:54;39.30;99.90
22682;DHT22;11508;50.856;4.380;2022-07-19T12:21:26;39.10;99.90
22682;DHT22;11508;50.856;4.380;2022-07-19T12:24:25;40.00;99.90
22682;DHT22;11508;50.856;4.380;2022-07-19T12:31:56;40.60;99.90
22682;DHT22;11508;50.856;4.380;2022-07-19T12:34:22;40.40;99.90
22682;DHT22;11508;50.856;4.380;2022-07-19T12:36:48;40.00;99.90
22682;DHT22;11508;50.856;4.380;2022-07-19T12:39:26;39.70;99.90
22682;DHT22;11508;50.856;4.380;2022-07-19T12:42:04;39.70;99.90
22682;DHT22;11508;50.856;4.380;2022-07-19T12:44:32;39.90;99.90
22682;DHT22;11508;50.856;4.380;2022-07-19T12:46:59;40.00;99.90
22682;DHT22;11508;50.856;4.380;2022-07-19T12:49:25;39.20;99.90
22682;DHT22;11508;50.856;4.380;2022-07-19T12:51:52;39.80;99.90
22682;DHT22;11508;50.856;4.380;2022-07-19T12:54:18;39.80;99.90
22682;DHT22;11508;50.856;4.380;2022-07-19T12:56:44;40.20;99.90
22682;DHT22;11508;50.856;4.380;2022-07-19T12:59:09;40.20;99.90
22682;DHT22;11508;50.856;4.380;2022-07-19T13:01:54;40.10;99.90
22682;DHT22;11508;50.856;4.380;2022-07-19T13:04:19;40.20;99.90
22682;DHT22;11508;50.856;4.380;2022-07-19T13:06:47;39.90;99.90
22682;DHT22;11508;50.856;4.380;2022-07-19T13:09:13;39.60;99.90
22682;DHT22;11508;50.856;4.380;2022-07-19T13:11:39;39.70;99.90
22682;DHT22;11508;50.856;4.380;2022-07-19T13:14:04;39.90;99.90
22682;DHT22;11508;50.856;4.380;2022-07-19T13:16:32;39.70;99.90
22682;DHT22;11508;50.856;4.380;2022-07-19T13:18:58;39.90;99.90
22682;DHT22;11508;50.856;4.380;2022-07-19T13:21:24;39.90;99.90
22682;DHT22;11508;50.856;4.380;2022-07-19T13:23:51;39.30;99.90
22682;DHT22;11508;50.856;4.380;2022-07-19T13:26:17;39.20;99.90
22682;DHT22;11508;50.856;4.380;2022-07-19T13:28:42;39.40;99.90
22682;DHT22;11508;50.856;4.380;2022-07-19T13:31:08;39.30;99.90
22682;DHT22;11508;50.856;4.380;2022-07-19T13:33:34;39.30;99.90
22682;DHT22;11508;50.856;4.380;2022-07-19T13:35:59;39.00;99.90
22682;DHT22;11508;50.856;4.380;2022-07-19T13:38:25;39.00;99.90
22682;DHT22;11508;50.856;4.380;2022-07-19T13:40:51;39.00;99.90
22682;DHT22;11508;50.856;4.380;2022-07-19T13:43:17;38.70;99.90
22682;DHT22;11508;50.856;4.380;2022-07-19T13:45:43;38.70;99.90
22682;DHT22;11508;50.856;4.380;2022-07-19T13:48:09;38.60;99.90
22682;DHT22;11508;50.856;4.380;2022-07-19T13:50:36;38.70;99.90
22682;DHT22;11508;50.856;4.380;2022-07-19T13:53:02;38.50;99.90
22682;DHT22;11508;50.856;4.380;2022-07-19T13:55:28;37.80;99.90
22682;DHT22;11508;50.856;4.380;2022-07-19T13:57:54;37.70;99.90
22682;DHT22;11508;50.856;4.380;2022-07-19T14:00:19;37.90;99.90
22682;DHT22;11508;50.856;4.380;2022-07-19T14:02:46;38.00;99.90
22682;DHT22;11508;50.856;4.380;2022-07-19T14:05:12;37.90;99.90
22682;DHT22;11508;50.856;4.380;2022-07-19T14:07:38;38.20;99.90
22682;DHT22;11508;50.856;4.380;2022-07-19T14:10:05;38.30;99.90
22682;DHT22;11508;50.856;4.380;2022-07-19T14:12:30;38.20;99.90
22682;DHT22;11508;50.856;4.380;2022-07-19T14:14:56;38.10;99.90
22682;DHT22;11508;50.856;4.380;2022-07-19T14:17:23;37.90;99.90
22682;DHT22;11508;50.856;4.380;2022-07-19T14:19:48;37.70;99.90
22682;DHT22;11508;50.856;4.380;2022-07-19T14:22:14;37.90;99.90
22682;DHT22;11508;50.856;4.380;2022-07-19T14:24:41;38.00;99.90
22682;DHT22;11508;50.856;4.380;2022-07-19T14:27:07;37.90;99.90
22682;DHT22;11508;50.856;4.380;2022-07-19T14:29:33;38.00;99.90
22682;DHT22;11508;50.856;4.380;2022-07-19T14:31:59;38.20;99.90
22682;DHT22;11508;50.856;4.380;2022-07-19T14:34:25;38.20;99.90
22682;DHT22;11508;50.856;4.380;2022-07-19T14:36:51;38.30;99.90
22682;DHT22;11508;50.856;4.380;2022-07-19T14:39:17;38.20;99.90
22682;DHT22;11508;50.856;4.380;2022-07-19T14:41:42;38.30;99.90
22682;DHT22;11508;50.856;4.380;2022-07-19T14:44:08;38.30;99.90
22682;DHT22;11508;50.856;4.380;2022-07-19T14:46:34;38.20;99.90
22682;DHT22;11508;50.856;4.380;2022-07-19T14:49:01;38.00;99.90
22682;DHT22;11508;50.856;4.380;2022-07-19T14:51:27;38.00;99.90
22682;DHT22;11508;50.856;4.380;2022-07-19T14:53:52;38.00;99.90
22682;DHT22;11508;50.856;4.380;2022-07-19T14:56:18;38.20;99.90
22682;DHT22;11508;50.856;4.380;2022-07-19T14:58:44;38.20;99.90
22682;DHT22;11508;50.856;4.380;2022-07-19T15:01:09;38.10;99.90
22682;DHT22;11508;50.856;4.380;2022-07-19T15:03:35;38.20;99.90
22682;DHT22;11508;50.856;4.380;2022-07-19T15:06:01;38.30;99.90
22682;DHT22;11508;50.856;4.380;2022-07-19T15:08:27;38.20;99.90
22682;DHT22;11508;50.856;4.380;2022-07-19T15:10:53;38.20;99.90
22682;DHT22;11508;50.856;4.380;2022-07-19T15:13:19;38.20;99.90
22682;DHT22;11508;50.856;4.380;2022-07-19T15:15:45;38.20;99.90
22682;DHT22;11508;50.856;4.380;2022-07-19T15:18:11;38.20;99.90
22682;DHT22;11508;50.856;4.380;2022-07-19T15:20:38;38.20;99.90
22682;DHT22;11508;50.856;4.380;2022-07-19T15:23:04;38.30;99.90
22682;DHT22;11508;50.856;4.380;2022-07-19T15:25:30;38.20;99.90
22682;DHT22;11508;50.856;4.380;2022-07-19T15:27:56;38.10;99.90
22682;DHT22;11508;50.856;4.380;2022-07-19T15:30:23;38.20;99.90
22682;DHT22;11508;50.856;4.380;2022-07-19T15:32:48;38.20;99.90
22682;DHT22;11508;50.856;4.380;2022-07-19T15:35:14;38.20;99.90
22682;DHT22;11508;50.856;4.380;2022-07-19T15:37:40;38.20;99.90
22682;DHT22;11508;50.856;4.380;2022-07-19T15:40:07;38.10;99.90
22682;DHT22;11508;50.856;4.380;2022-07-19T15:42:50;38.10;99.90
22682;DHT22;11508;50.856;4.380;2022-07-19T15:45:17;38.20;99.90
22682;DHT22;11508;50.856;4.380;2022-07-19T15:47:44;38.20;99.90
22682;DHT22;11508;50.856;4.380;2022-07-19T15:50:11;38.30;1.00
22682;DHT22;11508;50.856;4.380;2022-07-19T15:52:37;38.20;99.90
22682;DHT22;11508;50.856;4.380;2022-07-19T15:55:04;38.20;99.90
22682;DHT22;11508;50.856;4.380;2022-07-19T15:57:30;38.20;1.00
22682;DHT22;11508;50.856;4.380;2022-07-19T15:59:56;38.20;99.90
22682;DHT22;11508;50.856;4.380;2022-07-19T16:02:22;38.20;99.90